Time;durP1;ratioP1;P1;durP2;ratioP2;P2;SDS_P1;SDS_P2;PMS_P1;PMS_P2;Temp;Humidity;BMP_temperature;BMP_pressure;BME280_temperature;BME280_humidity;BME280_pressure;Samples;Min_cycle;Max_cycle;Signal;HPM_P1;HPM_P2
2023/12/24 00:01:49;;;;;;;325.83;11.70;;;;;;;21.47;57.93;98124.31;7281938;19;132159;-39
2023/12/24 00:04:14;;;;;;;365.50;13.17;;;;;;;21.45;57.68;98144.59;7281585;19;132323;-36
2023/12/24 00:06:40;;;;;;;271.93;9.80;;;;;;;21.45;57.44;98141.97;7281499;19;130605;-37
2023/12/24 00:09:05;;;;;;;301.30;10.40;;;;;;;21.46;57.58;98120.09;7281024;19;130059;-37
2023/12/24 00:11:31;;;;;;;389.27;14.25;;;;;;;21.44;57.29;98108.97;7280957;19;130744;-39
2023/12/24 00:13:57;;;;;;;301.42;10.75;;;;;;;21.41;57.91;98122.41;7280731;19;130837;-37
2023/12/24 00:16:22;;;;;;;337.42;12.40;;;;;;;21.44;57.68;98127.28;7280077;19;129785;-36
2023/12/24 00:18:48;;;;;;;271.40;9.75;;;;;;;21.46;57.95;98132.34;7281223;19;131483;-38
2023/12/24 00:21:13;;;;;;;356.85;12.57;;;;;;;21.44;57.37;98127.28;7281360;19;130348;-37
2023/12/24 00:23:39;;;;;;;292.50;10.47;;;;;;;21.41;57.75;98121.59;7282552;19;129702;-39
2023/12/24 00:26:04;;;;;;;303.63;10.67;;;;;;;21.43;58.16;98109.97;7281611;19;130279;-39
2023/12/24 00:28:29;;;;;;;379.03;14.20;;;;;;;21.28;57.96;98090.81;7279509;19;130231;-38
2023/12/24 00:30:55;;;;;;;365.75;13.00;;;;;;;21.27;57.49;98104.06;7278902;19;131664;-37
2023/12/24 00:33:20;;;;;;;316.45;11.43;;;;;;;21.41;57.92;98122.41;7281321;19;131596;-39
2023/12/24 00:35:47;;;;;;;287.23;9.97;;;;;;;21.42;57.88;98118.00;7281227;19;130002;-37
2023/12/24 00:38:12;;;;;;;327.63;11.95;;;;;;;21.41;58.26;98121.59;7280545;19;130140;-39
2023/12/24 00:40:38;;;;;;;350.85;12.35;;;;;;;21.41;57.80;98111.94;7279684;19;130281;-37
2023/12/24 00:43:03;;;;;;;299.20;10.60;;;;;;;21.32;58.17;98094.69;7280693;19;131631;-37
2023/12/24 00:45:29;;;;;;;349.25;12.70;;;;;;;21.44;58.15;98113.38;7281130;19;130400;-38
2023/12/24 00:47:55;;;;;;;279.40;10.07;;;;;;;21.45;57.60;98101.97;7280735;19;130797;-38
2023/12/24 00:50:20;;;;;;;331.27;11.83;;;;;;;21.46;57.40;98117.47;7275006;19;131881;-37
2023/12/24 00:52:46;;;;;;;329.02;11.80;;;;;;;21.45;57.82;98113.22;7277130;19;131167;-40
2023/12/24 00:55:12;;;;;;;409.17;15.02;;;;;;;21.46;57.90;98112.25;7278891;19;129634;-36
2023/12/24 00:57:37;;;;;;;336.13;11.83;;;;;;;21.45;57.95;98107.97;7280156;19;131691;-37
2023/12/24 01:00:05;;;;;;;346.47;12.33;;;;;;;21.43;57.55;98107.38;7279915;19;130592;-40
2023/12/24 01:02:30;;;;;;;308.17;11.20;;;;;;;21.46;57.31;98103.56;7276804;19;130033;-36
2023/12/24 01:04:56;;;;;;;265.00;9.48;;;;;;;21.42;58.22;98113.56;7280985;19;131200;-39
2023/12/24 01:07:21;;;;;;;366.30;13.17;;;;;;;21.38;57.64;98098.41;7279712;19;131393;-40
2023/12/24 01:09:46;;;;;;;255.25;9.13;;;;;;;21.28;58.44;98106.50;7279809;19;130550;-37
2023/12/24 01:12:12;;;;;;;308.42;11.27;;;;;;;21.23;58.55;98108.81;7279835;19;130237;-37
2023/12/24 01:14:37;;;;;;;280.52;10.10;;;;;;;21.23;58.71;98118.44;7278405;19;132544;-38
2023/12/24 01:17:02;;;;;;;351.73;12.63;;;;;;;21.22;58.46;98112.38;7279884;19;129933;-36
2023/12/24 01:19:28;;;;;;;276.10;10.00;;;;;;;21.26;57.91;98118.91;7279505;19;133265;-36
2023/12/24 01:21:56;;;;;;;306.67;10.77;;;;;;;21.20;58.33;98124.03;7278625;19;131526;-39
2023/12/24 01:24:21;;;;;;;309.35;11.07;;;;;;;21.26;57.97;98134.59;7278863;19;132803;-38
2023/12/24 01:26:47;;;;;;;347.75;12.20;;;;;;;21.27;57.91;98124.97;7277697;19;133061;-35
2023/12/24 01:29:12;;;;;;;344.77;12.90;;;;;;;21.25;57.94;98127.75;7279836;19;129806;-37
2023/12/24 01:31:38;;;;;;;349.48;12.65;;;;;;;21.26;58.19;98121.53;7279151;19;129850;-35
2023/12/24 01:34:03;;;;;;;299.33;10.70;;;;;;;21.23;58.73;98134.94;7278359;19;131253;-37
2023/12/24 01:36:29;;;;;;;366.90;13.30;;;;;;;21.24;58.60;98131.34;7278684;19;131634;-38
2023/12/24 01:38:54;;;;;;;274.48;9.73;;;;;;;21.21;58.59;98121.22;7279839;19;130308;-38
2023/12/24 01:41:19;;;;;;;275.27;9.57;;;;;;;21.07;58.08;98121.97;7278999;19;130463;-36
2023/12/24 01:43:46;;;;;;;343.95;12.15;;;;;;;21.24;58.49;98138.34;7278281;19;131600;-38
2023/12/24 01:46:13;;;;;;;321.60;11.57;;;;;;;21.11;58.62;98120.63;7279911;19;131520;-38
2023/12/24 01:48:39;;;;;;;315.73;11.57;;;;;;;21.22;58.02;98142.97;7278243;19;131300;-39
2023/12/24 01:51:05;;;;;;;295.35;10.45;;;;;;;21.20;58.67;98130.06;7277954;19;129845;-38
2023/12/24 01:53:32;;;;;;;331.92;11.75;;;;;;;21.19;58.53;98144.09;7277478;19;131373;-37
2023/12/24 01:56:00;;;;;;;327.17;11.38;;;;;;;21.07;58.60;98121.97;7279534;19;131183;-37
2023/12/24 01:58:26;;;;;;;343.45;12.65;;;;;;;21.17;58.80;98140.84;7276871;19;132013;-38
2023/12/24 02:00:52;;;;;;;364.02;13.48;;;;;;;21.16;58.94;98134.00;7276438;19;129493;-37
2023/12/24 02:03:19;;;;;;;318.10;11.32;;;;;;;21.18;58.63;98144.28;7286775;19;130551;-35
2023/12/24 02:05:47;;;;;;;361.10;12.98;;;;;;;21.19;58.16;98135.47;7285656;19;131043;-37
2023/12/24 02:08:14;;;;;;;299.15;10.57;;;;;;;21.18;58.52;98142.50;7284917;19;130658;-36
2023/12/24 02:10:40;;;;;;;313.40;11.52;;;;;;;21.18;58.52;98132.03;7283722;19;132056;-38
2023/12/24 02:13:06;;;;;;;285.73;10.10;;;;;;;21.19;58.72;98123.19;7283592;19;130205;-37
2023/12/24 02:15:31;;;;;;;342.98;12.27;;;;;;;21.17;58.95;98140.84;7286338;19;130665;-36
2023/12/24 02:17:59;;;;;;;278.85;9.88;;;;;;;21.14;58.68;98143.81;7286750;19;132751;-38
2023/12/24 02:20:25;;;;;;;328.13;11.55;;;;;;;21.14;58.21;98143.00;7283627;19;129965;-38
2023/12/24 02:22:51;;;;;;;302.90;10.75;;;;;;;21.13;58.93;98147.41;7282584;19;130707;-37
2023/12/24 02:25:16;;;;;;;363.73;12.90;;;;;;;21.16;58.45;98159.31;7284759;19;131358;-37
2023/12/24 02:27:49;;;;;;;294.45;10.50;;;;;;;21.14;59.09;98162.09;7285097;19;131231;-37
2023/12/24 02:30:27;;;;;;;295.77;10.55;;;;;;;21.15;58.80;98163.75;7284062;19;130591;-37
2023/12/24 02:32:55;;;;;;;300.75;10.48;;;;;;;21.11;58.76;98162.44;7282582;19;129404;-36
2023/12/24 02:35:21;;;;;;;328.25;11.45;;;;;;;21.15;59.01;98162.91;7284190;19;131224;-37
2023/12/24 02:37:47;;;;;;;330.48;11.50;;;;;;;21.15;58.73;98168.97;7284829;19;130311;-37
2023/12/24 02:40:12;;;;;;;256.55;9.15;;;;;;;21.01;59.03;98151.38;7284583;19;131913;-37
2023/12/24 02:42:38;;;;;;;304.60;11.03;;;;;;;21.14;58.23;98167.31;7282371;19;130256;-37
2023/12/24 02:45:04;;;;;;;345.83;12.32;;;;;;;21.13;58.75;98175.34;7283475;19;130135;-37
2023/12/24 02:47:29;;;;;;;306.50;11.18;;;;;;;21.13;59.20;98170.94;7284518;19;131086;-37
2023/12/24 02:49:55;;;;;;;272.63;9.47;;;;;;;21.01;58.64;98156.63;7284234;19;129601;-38
2023/12/24 02:52:20;;;;;;;296.05;10.55;;;;;;;21.13;58.75;98176.16;7282099;19;129957;-38
2023/12/24 02:54:45;;;;;;;345.65;12.38;;;;;;;21.10;59.22;98171.28;7283311;19;131901;-37
2023/12/24 02:57:11;;;;;;;326.63;11.70;;;;;;;21.13;58.95;98170.13;7284404;19;131146;-38
2023/12/24 02:59:36;;;;;;;312.10;11.27;;;;;;;20.98;58.76;98146.50;7282385;19;129952;-37
2023/12/24 03:02:01;;;;;;;313.48;11.10;;;;;;;21.12;58.63;98171.09;7282918;19;129897;-38
2023/12/24 03:04:27;;;;;;;345.85;12.32;;;;;;;20.98;58.54;98148.28;7284170;19;131703;-38
2023/12/24 03:06:52;;;;;;;301.33;10.88;;;;;;;21.10;58.97;98162.63;7281968;19;131220;-38
2023/12/24 03:09:17;;;;;;;311.88;11.38;;;;;;;21.11;58.51;98169.47;7280861;19;130328;-38
2023/12/24 03:11:43;;;;;;;337.73;12.02;;;;;;;21.13;59.36;98181.38;7281885;19;129743;-38
2023/12/24 03:14:08;;;;;;;434.10;15.90;;;;;;;21.10;59.04;98166.06;7278163;19;131300;-38
2023/12/24 03:16:34;;;;;;;272.98;10.27;;;;;;;21.07;58.96;98165.59;7283464;19;130767;-38
2023/12/24 03:18:59;;;;;;;316.77;11.40;;;;;;;21.06;58.69;98169.16;7281377;19;130425;-38
2023/12/24 03:21:24;;;;;;;341.52;12.02;;;;;;;21.10;58.76;98176.50;7282232;19;129403;-38
2023/12/24 03:23:50;;;;;;;296.13;10.30;;;;;;;21.07;58.70;98166.41;7283714;19;131181;-38
2023/12/24 03:26:22;;;;;;;281.50;9.77;;;;;;;21.09;58.61;98164.41;7284492;19;130647;-38
2023/12/24 03:28:48;;;;;;;291.33;10.05;;;;;;;21.09;58.49;98163.63;7282348;19;131332;-38
2023/12/24 03:31:14;;;;;;;364.83;12.68;;;;;;;20.93;59.58;98153.19;7282029;19;130971;-38
2023/12/24 03:33:39;;;;;;;345.43;12.63;;;;;;;21.06;58.91;98163.94;7282036;19;130891;-38
2023/12/24 03:36:09;;;;;;;311.30;11.07;;;;;;;21.04;59.37;98163.31;7283638;19;132063;-38
2023/12/24 03:38:35;;;;;;;331.38;12.10;;;;;;;20.87;59.21;98127.75;7281765;19;129869;-38
2023/12/24 03:41:01;;;;;;;339.20;11.90;;;;;;;21.07;58.82;98166.41;7278503;19;130079;-38
2023/12/24 03:43:26;;;;;;;310.38;10.65;;;;;;;21.07;59.02;98160.34;7283051;19;129790;-37
2023/12/24 03:45:51;;;;;;;321.85;11.32;;;;;;;21.09;59.29;98148.72;7281460;19;131649;-38
2023/12/24 03:48:17;;;;;;;307.73;10.75;;;;;;;21.06;58.57;98153.47;7283227;19;129608;-38
2023/12/24 03:50:43;;;;;;;340.70;12.07;;;;;;;21.02;58.86;98153.03;7281638;19;129677;-38
2023/12/24 03:53:08;;;;;;;293.05;10.35;;;;;;;21.06;59.00;98154.31;7280177;19;130898;-38
2023/12/24 03:55:33;;;;;;;312.35;11.05;;;;;;;21.01;59.13;98155.78;7282550;19;130465;-38
2023/12/24 03:57:59;;;;;;;288.53;10.23;;;;;;;21.03;58.73;98164.28;7281485;19;130687;-38
2023/12/24 04:00:25;;;;;;;410.73;15.03;;;;;;;21.05;58.81;98163.13;7280688;19;130035;-38
2023/12/24 04:02:52;;;;;;;295.93;10.60;;;;;;;21.03;59.23;98159.88;7280259;19;133025;-38
2023/12/24 04:05:17;;;;;;;;;;;;;;;20.97;59.38;98163.19;7282629;19;130493;-38
2023/12/24 04:07:42;;;;;;;306.85;10.85;;;;;;;21.01;58.86;98172.28;7281540;19;129900;-38
2023/12/24 04:10:08;;;;;;;340.25;12.00;;;;;;;21.01;58.73;98156.63;7281080;19;129565;-37
2023/12/24 04:12:33;;;;;;;342.13;12.15;;;;;;;21.01;59.00;98156.63;7280232;19;130751;-38
2023/12/24 04:14:59;;;;;;;323.63;11.77;;;;;;;20.99;59.44;98158.56;7279698;19;130464;-38
2023/12/24 04:17:24;;;;;;;313.52;11.23;;;;;;;20.99;58.72;98160.41;7280762;19;129615;-38
2023/12/24 04:19:49;;;;;;;329.47;11.40;;;;;;;20.98;59.66;98162.19;7280149;19;129632;-38
2023/12/24 04:22:15;;;;;;;317.48;11.00;;;;;;;20.92;59.32;98156.78;7278345;19;131956;-38
2023/12/24 04:24:40;;;;;;;379.67;13.53;;;;;;;20.96;59.17;98163.31;7276167;19;131403;-38
2023/12/24 04:27:05;;;;;;;335.45;11.50;;;;;;;20.94;59.62;98160.84;7279809;19;129944;-37
2023/12/24 04:29:31;;;;;;;329.63;11.55;;;;;;;20.97;59.41;98150.13;7281160;19;130503;-38
2023/12/24 04:31:56;;;;;;;274.33;9.50;;;;;;;20.98;59.18;98167.41;7281298;19;130868;-37
2023/12/24 04:34:21;;;;;;;259.67;9.20;;;;;;;20.98;59.57;98151.72;7280364;19;131910;-37
2023/12/24 04:36:47;;;;;;;366.00;12.82;;;;;;;21.00;58.96;98146.34;7279207;19;129403;-38
2023/12/24 04:39:12;;;;;;;351.77;12.73;;;;;;;21.07;58.88;98142.88;7279994;19;129437;-37
2023/12/24 04:41:37;;;;;;;297.33;10.67;;;;;;;21.42;57.87;98152.78;7280485;19;131427;-37
2023/12/24 04:44:03;;;;;;;278.63;9.75;;;;;;;22.13;55.71;98138.53;7280422;19;131361;-37
2023/12/24 04:46:28;;;;;;;330.73;11.47;;;;;;;22.81;54.05;98121.59;7280729;19;129749;-37
2023/12/24 04:48:54;;;;;;;269.37;9.67;;;;;;;23.58;51.84;98138.41;7279726;19;129297;-37
2023/12/24 04:51:19;;;;;;;292.20;10.27;;;;;;;24.32;50.21;98143.06;7278915;19;129755;-37
2023/12/24 04:53:44;;;;;;;325.52;11.98;;;;;;;24.81;48.79;98137.72;7277764;19;130180;-37
2023/12/24 04:56:22;;;;;;;360.13;12.63;;;;;;;25.06;47.40;98106.44;7280277;19;129682;-37
2023/12/24 04:58:47;;;;;;;;;;;;;;;25.69;46.71;98127.06;7278400;19;130141;-37
2023/12/24 05:01:16;;;;;;;318.67;11.32;;;;;;;25.89;46.10;98137.59;7278496;19;130582;-37
2023/12/24 05:03:42;;;;;;;320.38;11.82;;;;;;;26.03;45.14;98134.78;7278702;19;132160;-37
2023/12/24 05:06:07;;;;;;;301.20;10.97;;;;;;;26.19;44.76;98129.13;7280120;19;130569;-37
2023/12/24 05:08:33;;;;;;;315.20;11.68;;;;;;;26.30;45.39;98125.84;7277645;19;130592;-37
2023/12/24 05:11:06;;;;;;;270.70;9.57;;;;;;;26.41;44.27;98133.13;7277170;19;131576;-37
2023/12/24 05:13:31;;;;;;;283.50;10.10;;;;;;;26.61;44.12;98133.88;7277526;19;130255;-37
2023/12/24 05:15:57;;;;;;;296.87;10.47;;;;;;;26.63;44.08;98131.84;7279620;19;131452;-37
2023/12/24 05:18:22;;;;;;;362.73;13.10;;;;;;;26.75;43.95;98134.69;7278780;19;130397;-37
2023/12/24 05:20:47;;;;;;;341.40;12.60;;;;;;;26.76;43.71;98142.41;7276981;19;130163;-37
2023/12/24 05:23:13;;;;;;;303.53;10.70;;;;;;;26.73;43.66;98140.19;7276691;19;131258;-37
2023/12/24 05:25:38;;;;;;;384.87;14.50;;;;;;;26.61;44.14;98112.00;7276918;19;129395;-37
2023/12/24 05:28:03;;;;;;;286.80;10.27;;;;;;;26.63;44.19;98142.41;7279274;19;129798;-37
2023/12/24 05:30:29;;;;;;;335.63;12.27;;;;;;;26.56;44.30;98146.88;7277718;19;130269;-37
2023/12/24 05:32:54;;;;;;;306.13;11.00;;;;;;;26.42;45.21;98145.31;7274722;19;130431;-37
2023/12/24 05:35:19;;;;;;;356.67;12.93;;;;;;;26.15;45.30;98122.63;7278890;19;131249;-37
2023/12/24 05:37:46;;;;;;;284.10;10.43;;;;;;;26.19;45.09;98144.94;7278060;19;130760;-37
2023/12/24 05:40:12;;;;;;;288.30;10.27;;;;;;;26.05;45.27;98145.94;7277679;19;132005;-37
2023/12/24 05:42:37;;;;;;;357.20;13.53;;;;;;;25.81;46.30;98141.25;7274477;19;129626;-37
2023/12/24 05:45:03;;;;;;;357.80;12.77;;;;;;;25.68;46.12;98139.41;7275555;19;130316;-37
2023/12/24 05:47:29;;;;;;;291.30;10.40;;;;;;;25.46;46.63;98152.94;7278904;19;130546;-37
2023/12/24 05:49:54;;;;;;;256.57;9.30;;;;;;;25.22;47.23;98150.81;7276643;19;129857;-37
2023/12/24 05:52:20;;;;;;;296.40;10.70;;;;;;;25.07;48.22;98137.81;7276150;19;130253;-40
2023/12/24 05:54:45;;;;;;;357.93;13.00;;;;;;;24.89;48.87;98144.63;7274766;19;131324;-37
2023/12/24 05:57:10;;;;;;;317.70;11.47;;;;;;;24.63;49.36;98150.53;7278010;19;130954;-37
2023/12/24 05:59:36;;;;;;;377.70;14.17;;;;;;;24.47;49.76;98158.72;7275937;19;130657;-38
2023/12/24 06:02:02;;;;;;;308.67;11.33;;;;;;;24.28;50.43;98159.38;7276604;19;131189;-37
2023/12/24 06:04:27;;;;;;;299.30;10.63;;;;;;;24.15;50.34;98162.75;7277292;19;131106;-37
2023/12/24 06:06:53;;;;;;;320.55;11.48;;;;;;;23.98;51.25;98161.38;7275903;19;129795;-37
2023/12/24 06:09:18;;;;;;;338.10;12.90;;;;;;;23.81;51.58;98164.44;7276567;19;131877;-37
2023/12/24 06:11:44;;;;;;;359.60;12.93;;;;;;;23.66;52.06;98161.88;7276089;19;131635;-37
2023/12/24 06:14:09;;;;;;;350.00;12.63;;;;;;;23.52;51.89;98154.09;7275565;19;129646;-37
2023/12/24 06:16:34;;;;;;;271.73;9.83;;;;;;;23.36;52.02;98165.59;7277638;19;130546;-37
2023/12/24 06:19:00;;;;;;;316.40;11.50;;;;;;;23.23;52.53;98153.16;7275607;19;132182;-37
2023/12/24 06:21:25;;;;;;;345.50;12.27;;;;;;;23.09;52.81;98161.84;7275257;19;130880;-37
2023/12/24 06:23:52;;;;;;;281.80;10.27;;;;;;;22.98;53.86;98161.50;7278557;19;130920;-37
2023/12/24 06:26:18;;;;;;;368.83;13.90;;;;;;;22.87;54.19;98175.06;7275267;19;131190;-37
2023/12/24 06:28:43;;;;;;;301.17;10.93;;;;;;;22.76;53.88;98172.91;7275917;19;131746;-37
2023/12/24 06:31:09;;;;;;;379.90;13.53;;;;;;;22.63;54.37;98172.72;7275165;19;130298;-37
2023/12/24 06:33:35;;;;;;;280.30;9.80;;;;;;;22.56;54.64;98171.84;7277206;19;130126;-37
2023/12/24 06:36:00;;;;;;;264.40;9.38;;;;;;;22.48;54.53;98171.88;7275961;19;130661;-40
2023/12/24 06:38:25;;;;;;;327.27;11.83;;;;;;;22.41;54.86;98179.63;7276595;19;132175;-38
2023/12/24 06:40:51;;;;;;;436.00;16.17;;;;;;;22.35;55.67;98171.66;7274551;19;132444;-37
2023/12/24 06:43:16;;;;;;;235.60;8.68;;;;;;;22.27;55.56;98177.00;7275297;19;130430;-38
2023/12/24 06:45:41;;;;;;;275.20;9.80;;;;;;;22.12;56.06;98157.81;7275686;19;129800;-37
2023/12/24 06:48:07;;;;;;;326.27;11.68;;;;;;;22.17;55.71;98189.50;7276395;19;131869;-39
2023/12/24 06:50:32;;;;;;;320.20;11.40;;;;;;;22.13;56.43;98188.25;7281597;19;131776;-37
2023/12/24 06:52:58;;;;;;;304.20;10.50;;;;;;;22.08;56.07;98173.06;7279483;19;130048;-35
2023/12/24 06:55:23;;;;;;;344.90;12.27;;;;;;;22.11;55.94;98185.00;7282866;19;129501;-38
2023/12/24 06:57:48;;;;;;;305.95;10.63;;;;;;;22.15;56.26;98170.59;7283248;19;131063;-35
2023/12/24 07:00:14;;;;;;;342.67;12.43;;;;;;;22.34;55.90;98183.16;7283354;19;131637;-38
2023/12/24 07:02:39;;;;;;;316.30;11.03;;;;;;;22.53;55.30;98180.03;7280679;19;131746;-38
2023/12/24 07:05:05;;;;;;;307.85;10.65;;;;;;;22.78;54.61;98181.41;7282135;19;130097;-37
2023/12/24 07:07:31;;;;;;;349.37;12.60;;;;;;;22.92;54.06;98178.75;7282843;19;130940;-38
2023/12/24 07:09:56;;;;;;;349.35;12.63;;;;;;;23.13;53.12;98184.09;7282286;19;131078;-37
2023/12/24 07:12:21;;;;;;;290.13;10.70;;;;;;;23.27;52.66;98171.16;7280721;19;130070;-38
2023/12/24 07:14:47;;;;;;;376.33;13.80;;;;;;;23.29;52.87;98158.69;7278560;19;131277;-38
2023/12/24 07:17:12;;;;;;;356.88;13.00;;;;;;;23.46;52.83;98166.13;7282456;19;133025;-38
2023/12/24 07:19:37;;;;;;;268.40;9.38;;;;;;;23.69;51.53;98160.69;7282715;19;132077;-37
2023/12/24 07:22:03;;;;;;;310.17;11.13;;;;;;;23.82;51.77;98161.63;7278672;19;129992;-38
2023/12/24 07:24:28;;;;;;;272.33;9.93;;;;;;;24.02;50.87;98157.41;7281625;19;130212;-38
2023/12/24 07:26:54;;;;;;;367.60;13.60;;;;;;;24.27;50.34;98155.16;7280269;19;131383;-37
2023/12/24 07:29:19;;;;;;;313.40;12.27;;;;;;;24.38;49.91;98152.81;7278334;19;129844;-38
2023/12/24 07:31:46;;;;;;;276.67;9.75;;;;;;;24.39;49.25;98141.28;7281910;19;129688;-36
2023/12/24 07:34:11;;;;;;;361.85;13.55;;;;;;;24.56;49.16;98164.66;7279387;19;130490;-39
2023/12/24 07:36:37;;;;;;;327.07;11.80;;;;;;;24.62;49.35;98154.16;7281276;19;130487;-37
2023/12/24 07:39:03;;;;;;;275.67;9.83;;;;;;;24.59;49.00;98159.81;7281384;19;130019;-35
2023/12/24 07:41:30;;;;;;;302.67;10.97;;;;;;;24.60;49.66;98155.34;7280856;19;130755;-35
2023/12/24 07:43:55;;;;;;;351.25;13.07;;;;;;;24.73;49.43;98161.53;7280765;19;130636;-38
2023/12/24 07:46:21;;;;;;;320.07;11.37;;;;;;;24.78;48.91;98147.78;7282060;19;132426;-35
2023/12/24 07:48:46;;;;;;;386.33;14.30;;;;;;;24.80;48.59;98151.03;7279184;19;131109;-37
2023/12/24 07:51:11;;;;;;;352.17;12.83;;;;;;;24.85;48.42;98151.28;7279771;19;131051;-36
2023/12/24 07:53:37;;;;;;;330.93;11.83;;;;;;;24.70;49.13;98124.31;7281190;19;132393;-39
2023/12/24 07:56:02;;;;;;;297.67;10.53;;;;;;;24.88;48.43;98148.25;7282070;19;131412;-36
2023/12/24 07:58:27;;;;;;;315.75;11.60;;;;;;;24.95;48.14;98149.09;7281403;19;131295;-38
2023/12/24 08:00:53;;;;;;;289.95;10.48;;;;;;;24.95;48.68;98138.59;7278867;19;131237;-34
2023/12/24 08:03:18;;;;;;;403.35;14.80;;;;;;;24.93;48.52;98144.03;7276384;19;130013;-39
2023/12/24 08:05:43;;;;;;;297.97;10.60;;;;;;;24.88;48.83;98135.09;7278384;19;130183;-37
2023/12/24 08:08:09;;;;;;;305.17;11.10;;;;;;;24.71;48.82;98129.38;7278803;19;132057;-37
2023/12/24 08:10:34;;;;;;;346.10;12.67;;;;;;;24.75;49.11;98142.94;7275904;19;129829;-38
2023/12/24 08:13:00;;;;;;;355.87;12.83;;;;;;;24.72;49.51;98138.06;7277565;19;130315;-37
2023/12/24 08:15:25;;;;;;;314.87;11.37;;;;;;;24.59;49.44;98137.97;7278855;19;131745;-34
2023/12/24 08:17:50;;;;;;;322.67;11.73;;;;;;;24.55;49.29;98145.44;7279987;19;131139;-34
2023/12/24 08:20:16;;;;;;;321.67;11.33;;;;;;;24.46;50.10;98139.50;7277858;19;129873;-38
2023/12/24 08:22:41;;;;;;;386.17;13.90;;;;;;;24.40;50.25;98150.81;7276715;19;129878;-37
2023/12/24 08:25:08;;;;;;;313.90;11.17;;;;;;;24.37;50.26;98153.00;7279366;19;132357;-38
2023/12/24 08:27:33;;;;;;;368.50;13.77;;;;;;;24.23;50.50;98138.97;7277708;19;131255;-36
2023/12/24 08:29:58;;;;;;;447.93;17.17;;;;;;;24.21;50.37;98148.84;7275117;19;132287;-37
2023/12/24 08:32:24;;;;;;;357.10;13.30;;;;;;;24.14;50.34;98153.25;7272745;19;130603;-37
2023/12/24 08:34:49;;;;;;;341.90;12.37;;;;;;;24.10;51.03;98153.81;7273889;19;131594;-37
2023/12/24 08:37:14;;;;;;;337.33;12.20;;;;;;;23.97;50.72;98146.63;7274505;19;131546;-42
2023/12/24 08:39:40;;;;;;;342.30;12.38;;;;;;;23.87;50.96;98146.13;7277869;19;132272;-41
2023/12/24 08:42:06;;;;;;;369.47;13.80;;;;;;;23.81;51.96;98149.50;7275819;19;130862;-38
2023/12/24 08:44:31;;;;;;;297.65;10.63;;;;;;;23.72;51.41;98149.81;7277022;19;130194;-40
2023/12/24 08:46:56;;;;;;;306.08;11.18;;;;;;;23.58;51.71;98150.69;7277889;19;132375;-38
2023/12/24 08:49:23;;;;;;;422.93;15.90;;;;;;;23.43;52.63;98150.75;7277426;19;130317;-40
2023/12/24 08:51:48;;;;;;;281.15;10.15;;;;;;;23.44;52.61;98156.81;7278682;19;130655;-42
2023/12/24 08:54:14;;;;;;;304.87;11.17;;;;;;;23.38;52.41;98158.38;7276060;19;131292;-40
2023/12/24 08:56:39;;;;;;;331.20;12.03;;;;;;;23.27;53.45;98158.84;7276586;19;130812;-41
2023/12/24 08:59:07;;;;;;;438.50;15.83;;;;;;;23.18;53.28;98163.38;7274530;19;129792;-40
2023/12/24 09:01:33;;;;;;;286.05;10.15;;;;;;;23.14;53.61;98161.28;7276744;19;131259;-41
2023/12/24 09:03:58;;;;;;;351.73;12.63;;;;;;;23.04;53.44;98158.97;7275227;19;130850;-41
2023/12/24 09:06:24;;;;;;;284.77;10.60;;;;;;;23.00;53.93;98159.50;7277064;19;130437;-36
2023/12/24 09:08:49;;;;;;;346.33;12.30;;;;;;;22.98;53.99;98164.13;7276464;19;130997;-39
2023/12/24 09:11:14;;;;;;;293.10;10.80;;;;;;;22.95;54.41;98159.25;7273256;19;130344;-42
2023/12/24 09:13:40;;;;;;;285.37;10.07;;;;;;;22.90;54.37;98170.28;7277492;19;130252;-37
2023/12/24 09:16:06;;;;;;;305.23;11.20;;;;;;;22.85;53.86;98171.81;7274838;19;131034;-35
2023/12/24 09:18:31;;;;;;;395.70;14.63;;;;;;;22.83;54.58;98173.81;7277182;19;129912;-38
2023/12/24 09:20:56;;;;;;;334.00;11.90;;;;;;;22.78;54.03;98166.50;7277702;19;130909;-38
2023/12/24 09:23:22;;;;;;;348.63;12.67;;;;;;;22.75;54.18;98171.28;7277932;19;132198;-37
2023/12/24 09:25:47;;;;;;;317.15;11.23;;;;;;;22.74;54.11;98174.91;7277998;19;131181;-37
2023/12/24 09:28:12;;;;;;;301.00;10.70;;;;;;;22.63;54.06;98157.00;7278251;19;129988;-37
2023/12/24 09:30:38;;;;;;;346.03;12.40;;;;;;;22.72;54.22;98182.13;7274397;19;129555;-35
2023/12/24 09:33:03;;;;;;;298.20;10.93;;;;;;;22.73;54.22;98173.25;7274171;19;131099;-38
2023/12/24 09:35:30;;;;;;;371.97;13.40;;;;;;;22.76;54.72;98183.38;7276256;19;131219;-37
2023/12/24 09:37:55;;;;;;;362.20;13.35;;;;;;;22.66;54.54;98167.16;7277931;19;130976;-39
2023/12/24 09:40:21;;;;;;;301.92;10.68;;;;;;;22.83;54.44;98181.66;7276517;19;132152;-37
2023/12/24 09:42:46;;;;;;;301.13;10.63;;;;;;;22.83;53.92;98181.66;7274805;19;131330;-36
2023/12/24 09:45:11;;;;;;;321.83;11.33;;;;;;;22.87;54.19;98182.94;7277247;19;130416;-38
2023/12/24 09:47:37;;;;;;;298.75;10.65;;;;;;;22.90;54.14;98186.00;7278237;19;131537;-37
2023/12/24 09:50:03;;;;;;;321.97;11.87;;;;;;;22.94;54.13;98155.00;7273098;19;130936;-36
2023/12/24 09:52:29;;;;;;;312.03;11.27;;;;;;;22.98;54.27;98178.03;7278056;19;132227;-37
2023/12/24 09:54:55;;;;;;;349.57;12.70;;;;;;;23.06;53.76;98164.00;7273065;19;131026;-38
2023/12/24 09:57:20;;;;;;;276.77;9.88;;;;;;;23.12;53.58;98168.53;7277909;19;130315;-38
2023/12/24 09:59:47;;;;;;;277.98;9.65;;;;;;;23.14;53.63;98161.28;7276218;19;130514;-37
2023/12/24 10:02:12;;;;;;;290.97;10.33;;;;;;;23.03;53.33;98140.78;7273365;19;131410;-37
2023/12/24 10:04:37;;;;;;;343.40;12.20;;;;;;;23.22;53.31;98148.09;7275929;19;133025;-37
2023/12/24 10:07:03;;;;;;;376.47;13.83;;;;;;;23.12;52.98;98132.63;7274439;19;130993;-37
2023/12/24 10:09:48;;;;;;;320.42;12.57;;;;;;;23.16;51.00;98149.63;7274951;19;131326;-37
2023/12/24 10:12:13;;;;;;;290.42;10.70;;;;;;;23.19;51.80;98116.97;7274656;19;129484;-37
2023/12/24 10:14:40;;;;;;;315.07;11.17;;;;;;;23.43;51.52;98140.28;7273130;19;130903;-37
2023/12/24 10:17:06;;;;;;;347.88;13.18;;;;;;;23.44;51.65;98136.63;7273997;19;130939;-37
2023/12/24 10:19:32;;;;;;;337.92;12.00;;;;;;;23.42;51.85;98133.38;7275323;19;131280;-37
2023/12/24 10:22:04;;;;;;;326.00;11.87;;;;;;;23.42;51.67;98122.09;7275244;19;130988;-37
2023/12/24 10:24:43;;;;;;;296.05;10.90;;;;;;;23.45;51.86;98129.59;7277796;19;131228;-37
2023/12/24 10:27:13;;;;;;;404.20;15.18;;;;;;;23.54;51.48;98120.59;7281025;19;131238;-37
2023/12/24 10:29:41;;;;;;;385.90;14.63;;;;;;;23.64;51.81;98132.41;7282876;19;130975;-37
2023/12/24 10:32:10;;;;;;;382.83;14.50;;;;;;;23.55;51.43;98096.78;7278175;19;132177;-37
2023/12/24 10:34:37;;;;;;;307.10;11.23;;;;;;;23.70;51.38;98136.09;7280244;19;131116;-37
2023/12/24 10:37:19;;;;;;;342.10;12.30;;;;;;;23.66;51.09;98100.72;7281453;19;129722;-37
2023/12/24 10:39:44;;;;;;;349.65;12.85;;;;;;;23.68;51.03;98102.16;7276007;19;131115;-37
2023/12/24 10:42:10;;;;;;;341.93;12.80;;;;;;;23.77;50.47;98122.00;7280860;19;130074;-37
2023/12/24 10:44:36;;;;;;;331.65;12.35;;;;;;;23.88;49.74;98112.81;7279193;19;130347;-36
2023/12/24 10:47:03;;;;;;;299.50;11.43;;;;;;;23.94;50.25;98115.50;7280597;19;130337;-38
2023/12/24 10:49:28;;;;;;;;;;;;;;;23.88;50.35;98108.38;7280828;19;130863;-37
2023/12/24 10:51:55;;;;;;;301.73;11.40;;;;;;;23.88;51.07;98105.75;7279215;19;132366;-37
2023/12/24 10:54:21;;;;;;;308.35;12.00;;;;;;;23.79;51.12;98113.94;7281189;19;133154;-37
2023/12/24 10:57:02;;;;;;;351.57;13.30;;;;;;;23.67;51.40;98100.53;7277440;19;132155;-37
2023/12/24 11:00:06;;;;;;;407.23;15.80;;;;;;;23.51;51.51;98100.78;7280746;19;129600;-37